sensor_id;sensor_type;location;lat;lon;timestamp;P1;durP1;ratioP1;P2;durP2;ratioP2
62704;SDS011;48767;50.754;8.772;2022-08-21T00:00:39;17.40;;;7.25;;
62704;SDS011;48767;50.754;8.772;2022-08-21T00:03:08;9.77;;;6.85;;
62704;SDS011;48767;50.754;8.772;2022-08-21T00:05:38;9.75;;;6.53;;
62704;SDS011;48767;50.754;8.772;2022-08-21T00:08:06;9.25;;;6.07;;
62704;SDS011;48767;50.754;8.772;2022-08-21T00:10:33;8.07;;;6.78;;
62704;SDS011;48767;50.754;8.772;2022-08-21T00:13:00;9.45;;;6.93;;
62704;SDS011;48767;50.754;8.772;2022-08-21T00:15:28;10.15;;;6.30;;
62704;SDS011;48767;50.754;8.772;2022-08-21T00:17:58;9.00;;;6.70;;
62704;SDS011;48767;50.754;8.772;2022-08-21T00:20:25;8.85;;;6.72;;
62704;SDS011;48767;50.754;8.772;2022-08-21T00:22:52;8.20;;;6.63;;
62704;SDS011;48767;50.754;8.772;2022-08-21T00:25:19;7.32;;;5.90;;
62704;SDS011;48767;50.754;8.772;2022-08-21T00:27:47;12.73;;;6.50;;
62704;SDS011;48767;50.754;8.772;2022-08-21T00:30:14;10.02;;;6.72;;
62704;SDS011;48767;50.754;8.772;2022-08-21T00:32:43;9.32;;;7.28;;
62704;SDS011;48767;50.754;8.772;2022-08-21T00:35:12;8.95;;;6.70;;
62704;SDS011;48767;50.754;8.772;2022-08-21T00:37:41;11.32;;;6.95;;
62704;SDS011;48767;50.754;8.772;2022-08-21T00:40:09;10.35;;;6.50;;
62704;SDS011;48767;50.754;8.772;2022-08-21T00:42:39;10.65;;;6.65;;
62704;SDS011;48767;50.754;8.772;2022-08-21T00:45:06;13.32;;;6.28;;
62704;SDS011;48767;50.754;8.772;2022-08-21T00:47:33;9.30;;;6.97;;
62704;SDS011;48767;50.754;8.772;2022-08-21T00:50:00;9.25;;;6.95;;
62704;SDS011;48767;50.754;8.772;2022-08-21T00:52:28;10.38;;;7.05;;
62704;SDS011;48767;50.754;8.772;2022-08-21T00:54:57;11.85;;;8.05;;
62704;SDS011;48767;50.754;8.772;2022-08-21T00:59:55;12.35;;;6.90;;
62704;SDS011;48767;50.754;8.772;2022-08-21T01:02:24;10.95;;;7.68;;
62704;SDS011;48767;50.754;8.772;2022-08-21T01:04:51;13.07;;;8.13;;
62704;SDS011;48767;50.754;8.772;2022-08-21T01:07:18;10.80;;;8.00;;
62704;SDS011;48767;50.754;8.772;2022-08-21T01:09:46;11.95;;;8.52;;
62704;SDS011;48767;50.754;8.772;2022-08-21T01:12:13;12.88;;;7.70;;
62704;SDS011;48767;50.754;8.772;2022-08-21T01:14:41;12.63;;;8.10;;
62704;SDS011;48767;50.754;8.772;2022-08-21T01:17:08;11.05;;;7.82;;
62704;SDS011;48767;50.754;8.772;2022-08-21T01:19:37;10.18;;;7.88;;
62704;SDS011;48767;50.754;8.772;2022-08-21T01:22:05;10.10;;;7.40;;
62704;SDS011;48767;50.754;8.772;2022-08-21T01:26:58;12.57;;;7.85;;
62704;SDS011;48767;50.754;8.772;2022-08-21T01:29:29;9.50;;;6.97;;
62704;SDS011;48767;50.754;8.772;2022-08-21T01:32:03;9.98;;;7.50;;
62704;SDS011;48767;50.754;8.772;2022-08-21T01:34:31;14.45;;;8.10;;
62704;SDS011;48767;50.754;8.772;2022-08-21T01:36:58;13.60;;;9.02;;
62704;SDS011;48767;50.754;8.772;2022-08-21T01:39:26;13.95;;;8.70;;
62704;SDS011;48767;50.754;8.772;2022-08-21T01:41:53;9.73;;;7.30;;
62704;SDS011;48767;50.754;8.772;2022-08-21T01:44:20;11.63;;;7.72;;
62704;SDS011;48767;50.754;8.772;2022-08-21T01:46:47;9.70;;;7.88;;
62704;SDS011;48767;50.754;8.772;2022-08-21T01:49:14;10.60;;;7.45;;
62704;SDS011;48767;50.754;8.772;2022-08-21T01:51:40;10.45;;;7.32;;
62704;SDS011;48767;50.754;8.772;2022-08-21T01:54:07;8.82;;;7.13;;
62704;SDS011;48767;50.754;8.772;2022-08-21T01:56:37;10.63;;;7.03;;
62704;SDS011;48767;50.754;8.772;2022-08-21T01:59:05;10.70;;;8.00;;
62704;SDS011;48767;50.754;8.772;2022-08-21T02:01:31;10.40;;;7.53;;
62704;SDS011;48767;50.754;8.772;2022-08-21T02:03:58;10.93;;;6.97;;
62704;SDS011;48767;50.754;8.772;2022-08-21T02:06:25;9.40;;;7.35;;
62704;SDS011;48767;50.754;8.772;2022-08-21T02:08:52;10.07;;;7.35;;
62704;SDS011;48767;50.754;8.772;2022-08-21T02:11:19;16.27;;;10.23;;
62704;SDS011;48767;50.754;8.772;2022-08-21T02:13:47;16.05;;;10.43;;
62704;SDS011;48767;50.754;8.772;2022-08-21T02:16:13;14.40;;;9.48;;
62704;SDS011;48767;50.754;8.772;2022-08-21T02:18:40;13.07;;;9.13;;
62704;SDS011;48767;50.754;8.772;2022-08-21T02:21:07;14.20;;;8.98;;
62704;SDS011;48767;50.754;8.772;2022-08-21T02:23:33;12.98;;;9.52;;
62704;SDS011;48767;50.754;8.772;2022-08-21T02:26:00;15.00;;;9.20;;
62704;SDS011;48767;50.754;8.772;2022-08-21T02:28:28;13.63;;;8.68;;
62704;SDS011;48767;50.754;8.772;2022-08-21T02:30:57;16.95;;;10.10;;
62704;SDS011;48767;50.754;8.772;2022-08-21T02:33:24;12.50;;;9.02;;
62704;SDS011;48767;50.754;8.772;2022-08-21T02:35:51;11.32;;;8.27;;
62704;SDS011;48767;50.754;8.772;2022-08-21T02:38:18;9.52;;;7.32;;
62704;SDS011;48767;50.754;8.772;2022-08-21T02:40:48;12.45;;;8.13;;
62704;SDS011;48767;50.754;8.772;2022-08-21T02:43:17;11.73;;;8.35;;
62704;SDS011;48767;50.754;8.772;2022-08-21T02:48:12;12.48;;;8.93;;
62704;SDS011;48767;50.754;8.772;2022-08-21T02:50:43;13.70;;;8.82;;
62704;SDS011;48767;50.754;8.772;2022-08-21T02:53:11;11.88;;;8.48;;
62704;SDS011;48767;50.754;8.772;2022-08-21T02:55:42;12.73;;;9.23;;
62704;SDS011;48767;50.754;8.772;2022-08-21T02:58:09;12.85;;;9.07;;
62704;SDS011;48767;50.754;8.772;2022-08-21T03:00:37;14.27;;;9.32;;
62704;SDS011;48767;50.754;8.772;2022-08-21T03:03:04;13.70;;;8.60;;
62704;SDS011;48767;50.754;8.772;2022-08-21T03:05:33;11.60;;;8.20;;
62704;SDS011;48767;50.754;8.772;2022-08-21T03:08:02;13.55;;;8.20;;
62704;SDS011;48767;50.754;8.772;2022-08-21T03:10:31;9.75;;;7.50;;
62704;SDS011;48767;50.754;8.772;2022-08-21T03:12:58;13.45;;;8.65;;
62704;SDS011;48767;50.754;8.772;2022-08-21T03:15:25;12.80;;;8.30;;
62704;SDS011;48767;50.754;8.772;2022-08-21T03:17:51;12.57;;;8.13;;
62704;SDS011;48767;50.754;8.772;2022-08-21T03:20:20;13.73;;;7.72;;
62704;SDS011;48767;50.754;8.772;2022-08-21T03:22:50;12.18;;;7.75;;
62704;SDS011;48767;50.754;8.772;2022-08-21T03:25:16;11.02;;;7.80;;
62704;SDS011;48767;50.754;8.772;2022-08-21T03:27:44;10.88;;;8.00;;
62704;SDS011;48767;50.754;8.772;2022-08-21T03:30:11;10.90;;;7.68;;
62704;SDS011;48767;50.754;8.772;2022-08-21T03:32:38;10.63;;;7.85;;
62704;SDS011;48767;50.754;8.772;2022-08-21T03:35:06;13.30;;;7.90;;
62704;SDS011;48767;50.754;8.772;2022-08-21T03:37:34;10.98;;;7.47;;
62704;SDS011;48767;50.754;8.772;2022-08-21T03:40:02;11.18;;;7.60;;
62704;SDS011;48767;50.754;8.772;2022-08-21T03:42:29;11.40;;;7.50;;
62704;SDS011;48767;50.754;8.772;2022-08-21T03:44:55;10.65;;;7.75;;
62704;SDS011;48767;50.754;8.772;2022-08-21T03:47:22;11.25;;;7.95;;
62704;SDS011;48767;50.754;8.772;2022-08-21T03:49:49;12.63;;;8.70;;
62704;SDS011;48767;50.754;8.772;2022-08-21T03:52:15;13.15;;;9.45;;
62704;SDS011;48767;50.754;8.772;2022-08-21T03:54:42;13.60;;;10.13;;
62704;SDS011;48767;50.754;8.772;2022-08-21T03:57:10;12.63;;;8.95;;
62704;SDS011;48767;50.754;8.772;2022-08-21T03:59:36;14.95;;;9.57;;
62704;SDS011;48767;50.754;8.772;2022-08-21T04:02:04;12.63;;;9.40;;
62704;SDS011;48767;50.754;8.772;2022-08-21T04:04:32;14.02;;;8.95;;
62704;SDS011;48767;50.754;8.772;2022-08-21T04:06:59;16.27;;;10.60;;
62704;SDS011;48767;50.754;8.772;2022-08-21T04:09:26;13.93;;;9.02;;
62704;SDS011;48767;50.754;8.772;2022-08-21T04:11:53;13.00;;;8.95;;
62704;SDS011;48767;50.754;8.772;2022-08-21T04:14:21;15.13;;;9.35;;
62704;SDS011;48767;50.754;8.772;2022-08-21T04:16:48;13.00;;;8.75;;
62704;SDS011;48767;50.754;8.772;2022-08-21T04:19:15;15.73;;;9.52;;
62704;SDS011;48767;50.754;8.772;2022-08-21T04:21:41;14.02;;;9.15;;
62704;SDS011;48767;50.754;8.772;2022-08-21T04:24:08;16.15;;;10.35;;
62704;SDS011;48767;50.754;8.772;2022-08-21T04:26:36;16.08;;;9.45;;
62704;SDS011;48767;50.754;8.772;2022-08-21T04:29:04;13.85;;;8.63;;
62704;SDS011;48767;50.754;8.772;2022-08-21T04:31:33;14.60;;;8.88;;
62704;SDS011;48767;50.754;8.772;2022-08-21T04:34:01;13.15;;;8.65;;
62704;SDS011;48767;50.754;8.772;2022-08-21T04:36:28;16.45;;;10.10;;
62704;SDS011;48767;50.754;8.772;2022-08-21T04:38:55;15.30;;;9.57;;
62704;SDS011;48767;50.754;8.772;2022-08-21T04:41:21;12.77;;;8.27;;
62704;SDS011;48767;50.754;8.772;2022-08-21T04:43:48;13.20;;;8.57;;
62704;SDS011;48767;50.754;8.772;2022-08-21T04:46:14;13.50;;;10.20;;
62704;SDS011;48767;50.754;8.772;2022-08-21T04:48:42;12.60;;;8.95;;
62704;SDS011;48767;50.754;8.772;2022-08-21T04:51:09;14.45;;;9.68;;
62704;SDS011;48767;50.754;8.772;2022-08-21T04:53:40;14.45;;;9.55;;
62704;SDS011;48767;50.754;8.772;2022-08-21T04:56:10;13.52;;;9.20;;
62704;SDS011;48767;50.754;8.772;2022-08-21T04:58:40;12.32;;;8.50;;
62704;SDS011;48767;50.754;8.772;2022-08-21T05:01:08;14.00;;;8.85;;
62704;SDS011;48767;50.754;8.772;2022-08-21T05:03:39;14.23;;;7.88;;
62704;SDS011;48767;50.754;8.772;2022-08-21T05:06:08;10.77;;;6.95;;
62704;SDS011;48767;50.754;8.772;2022-08-21T05:08:38;11.50;;;8.43;;
62704;SDS011;48767;50.754;8.772;2022-08-21T05:11:07;14.85;;;8.48;;
62704;SDS011;48767;50.754;8.772;2022-08-21T05:13:33;15.43;;;10.20;;
62704;SDS011;48767;50.754;8.772;2022-08-21T05:16:01;13.52;;;9.05;;
62704;SDS011;48767;50.754;8.772;2022-08-21T05:18:28;12.38;;;8.80;;
62704;SDS011;48767;50.754;8.772;2022-08-21T05:20:54;12.15;;;8.73;;
62704;SDS011;48767;50.754;8.772;2022-08-21T05:23:23;13.63;;;8.20;;
62704;SDS011;48767;50.754;8.772;2022-08-21T05:25:49;10.65;;;7.22;;
62704;SDS011;48767;50.754;8.772;2022-08-21T05:28:17;11.98;;;8.10;;
62704;SDS011;48767;50.754;8.772;2022-08-21T05:30:44;14.95;;;9.75;;
62704;SDS011;48767;50.754;8.772;2022-08-21T05:33:10;14.38;;;9.00;;
62704;SDS011;48767;50.754;8.772;2022-08-21T05:35:37;12.85;;;9.48;;
62704;SDS011;48767;50.754;8.772;2022-08-21T05:38:04;12.30;;;8.80;;
62704;SDS011;48767;50.754;8.772;2022-08-21T05:40:33;12.65;;;8.90;;
62704;SDS011;48767;50.754;8.772;2022-08-21T05:42:59;15.48;;;9.98;;
62704;SDS011;48767;50.754;8.772;2022-08-21T05:45:27;12.07;;;8.77;;
62704;SDS011;48767;50.754;8.772;2022-08-21T05:47:55;11.85;;;8.70;;
62704;SDS011;48767;50.754;8.772;2022-08-21T05:50:22;14.93;;;8.77;;
62704;SDS011;48767;50.754;8.772;2022-08-21T05:52:48;11.10;;;8.45;;
62704;SDS011;48767;50.754;8.772;2022-08-21T05:55:15;12.07;;;8.23;;
62704;SDS011;48767;50.754;8.772;2022-08-21T05:57:43;9.95;;;7.43;;
62704;SDS011;48767;50.754;8.772;2022-08-21T06:00:09;11.05;;;8.07;;
62704;SDS011;48767;50.754;8.772;2022-08-21T06:05:04;10.77;;;8.60;;
62704;SDS011;48767;50.754;8.772;2022-08-21T06:07:31;11.52;;;8.57;;
62704;SDS011;48767;50.754;8.772;2022-08-21T06:09:57;9.75;;;7.57;;
62704;SDS011;48767;50.754;8.772;2022-08-21T06:12:24;10.45;;;8.00;;
62704;SDS011;48767;50.754;8.772;2022-08-21T06:14:52;13.35;;;8.48;;
62704;SDS011;48767;50.754;8.772;2022-08-21T06:17:18;12.73;;;8.23;;
62704;SDS011;48767;50.754;8.772;2022-08-21T06:19:50;11.95;;;7.70;;
62704;SDS011;48767;50.754;8.772;2022-08-21T06:22:17;12.30;;;8.52;;
62704;SDS011;48767;50.754;8.772;2022-08-21T06:24:43;11.95;;;8.75;;
62704;SDS011;48767;50.754;8.772;2022-08-21T06:27:09;10.73;;;8.50;;
62704;SDS011;48767;50.754;8.772;2022-08-21T06:29:36;14.27;;;8.52;;
62704;SDS011;48767;50.754;8.772;2022-08-21T06:32:04;12.93;;;8.75;;
62704;SDS011;48767;50.754;8.772;2022-08-21T06:34:35;10.65;;;7.57;;
62704;SDS011;48767;50.754;8.772;2022-08-21T06:37:02;12.52;;;7.90;;
62704;SDS011;48767;50.754;8.772;2022-08-21T06:39:29;9.68;;;8.35;;
62704;SDS011;48767;50.754;8.772;2022-08-21T06:41:56;11.32;;;8.07;;
62704;SDS011;48767;50.754;8.772;2022-08-21T06:44:22;11.80;;;8.27;;
62704;SDS011;48767;50.754;8.772;2022-08-21T06:46:49;12.77;;;7.68;;
62704;SDS011;48767;50.754;8.772;2022-08-21T06:49:16;12.05;;;8.20;;
62704;SDS011;48767;50.754;8.772;2022-08-21T06:51:43;14.75;;;8.50;;
62704;SDS011;48767;50.754;8.772;2022-08-21T06:54:10;12.52;;;8.52;;
62704;SDS011;48767;50.754;8.772;2022-08-21T06:56:36;13.02;;;7.72;;
62704;SDS011;48767;50.754;8.772;2022-08-21T06:59:03;13.90;;;7.68;;
62704;SDS011;48767;50.754;8.772;2022-08-21T07:01:29;9.07;;;7.05;;
62704;SDS011;48767;50.754;8.772;2022-08-21T07:03:56;9.15;;;7.18;;
62704;SDS011;48767;50.754;8.772;2022-08-21T07:06:23;11.73;;;7.65;;
62704;SDS011;48767;50.754;8.772;2022-08-21T07:08:50;12.52;;;6.63;;
62704;SDS011;48767;50.754;8.772;2022-08-21T07:11:18;12.52;;;7.68;;
62704;SDS011;48767;50.754;8.772;2022-08-21T07:13:47;10.98;;;8.75;;
62704;SDS011;48767;50.754;8.772;2022-08-21T07:16:16;10.00;;;7.25;;
62704;SDS011;48767;50.754;8.772;2022-08-21T07:18:42;9.88;;;6.60;;
62704;SDS011;48767;50.754;8.772;2022-08-21T07:21:09;8.45;;;6.43;;
62704;SDS011;48767;50.754;8.772;2022-08-21T07:23:39;10.90;;;7.07;;
62704;SDS011;48767;50.754;8.772;2022-08-21T07:26:08;14.32;;;7.20;;
62704;SDS011;48767;50.754;8.772;2022-08-21T07:28:35;7.65;;;6.82;;
62704;SDS011;48767;50.754;8.772;2022-08-21T07:31:01;9.52;;;6.93;;
62704;SDS011;48767;50.754;8.772;2022-08-21T07:33:29;14.63;;;7.93;;
62704;SDS011;48767;50.754;8.772;2022-08-21T07:35:57;13.73;;;7.30;;
62704;SDS011;48767;50.754;8.772;2022-08-21T07:38:25;11.85;;;8.05;;
62704;SDS011;48767;50.754;8.772;2022-08-21T07:40:54;18.05;;;7.65;;
62704;SDS011;48767;50.754;8.772;2022-08-21T07:43:23;9.68;;;6.10;;
62704;SDS011;48767;50.754;8.772;2022-08-21T07:45:50;13.00;;;6.68;;
62704;SDS011;48767;50.754;8.772;2022-08-21T07:48:18;9.32;;;6.50;;
62704;SDS011;48767;50.754;8.772;2022-08-21T07:50:45;15.00;;;7.32;;
62704;SDS011;48767;50.754;8.772;2022-08-21T07:53:12;13.73;;;6.65;;
62704;SDS011;48767;50.754;8.772;2022-08-21T07:55:38;10.13;;;6.65;;
62704;SDS011;48767;50.754;8.772;2022-08-21T07:58:06;10.68;;;6.65;;
62704;SDS011;48767;50.754;8.772;2022-08-21T08:00:33;12.98;;;6.80;;
62704;SDS011;48767;50.754;8.772;2022-08-21T08:02:59;10.93;;;5.97;;
62704;SDS011;48767;50.754;8.772;2022-08-21T08:05:28;13.60;;;6.82;;
62704;SDS011;48767;50.754;8.772;2022-08-21T08:07:56;10.50;;;6.43;;
62704;SDS011;48767;50.754;8.772;2022-08-21T08:10:23;10.18;;;6.32;;
62704;SDS011;48767;50.754;8.772;2022-08-21T08:15:22;10.65;;;5.70;;
62704;SDS011;48767;50.754;8.772;2022-08-21T08:17:51;10.15;;;6.03;;
62704;SDS011;48767;50.754;8.772;2022-08-21T08:20:20;7.55;;;5.57;;
62704;SDS011;48767;50.754;8.772;2022-08-21T08:22:48;11.77;;;5.63;;
62704;SDS011;48767;50.754;8.772;2022-08-21T08:25:15;10.98;;;6.25;;
62704;SDS011;48767;50.754;8.772;2022-08-21T08:27:43;12.55;;;5.90;;
62704;SDS011;48767;50.754;8.772;2022-08-21T08:30:10;13.75;;;5.28;;
62704;SDS011;48767;50.754;8.772;2022-08-21T08:32:40;11.88;;;4.68;;
62704;SDS011;48767;50.754;8.772;2022-08-21T08:35:07;11.93;;;3.80;;
62704;SDS011;48767;50.754;8.772;2022-08-21T08:37:34;9.50;;;4.20;;
62704;SDS011;48767;50.754;8.772;2022-08-21T08:40:03;6.95;;;4.15;;
62704;SDS011;48767;50.754;8.772;2022-08-21T08:45:00;11.93;;;4.75;;
62704;SDS011;48767;50.754;8.772;2022-08-21T08:47:30;9.25;;;4.13;;
62704;SDS011;48767;50.754;8.772;2022-08-21T08:50:01;7.25;;;2.85;;
62704;SDS011;48767;50.754;8.772;2022-08-21T08:52:31;7.88;;;3.33;;
62704;SDS011;48767;50.754;8.772;2022-08-21T08:55:01;8.57;;;3.53;;
62704;SDS011;48767;50.754;8.772;2022-08-21T08:57:30;9.75;;;3.38;;
62704;SDS011;48767;50.754;8.772;2022-08-21T08:59:59;11.70;;;4.75;;
62704;SDS011;48767;50.754;8.772;2022-08-21T09:02:30;8.48;;;3.85;;
62704;SDS011;48767;50.754;8.772;2022-08-21T09:04:59;8.68;;;3.50;;
62704;SDS011;48767;50.754;8.772;2022-08-21T09:07:29;10.00;;;3.72;;
62704;SDS011;48767;50.754;8.772;2022-08-21T09:10:06;11.35;;;4.20;;
62704;SDS011;48767;50.754;8.772;2022-08-21T09:12:42;11.55;;;3.47;;
62704;SDS011;48767;50.754;8.772;2022-08-21T09:15:24;8.55;;;3.65;;
62704;SDS011;48767;50.754;8.772;2022-08-21T09:18:02;8.60;;;3.28;;
62704;SDS011;48767;50.754;8.772;2022-08-21T09:20:44;10.30;;;4.00;;
62704;SDS011;48767;50.754;8.772;2022-08-21T09:23:22;9.77;;;3.63;;
62704;SDS011;48767;50.754;8.772;2022-08-21T09:26:02;8.30;;;3.78;;
62704;SDS011;48767;50.754;8.772;2022-08-21T09:28:33;9.95;;;3.35;;
62704;SDS011;48767;50.754;8.772;2022-08-21T09:31:02;16.65;;;3.38;;
62704;SDS011;48767;50.754;8.772;2022-08-21T09:33:31;7.40;;;3.58;;
62704;SDS011;48767;50.754;8.772;2022-08-21T09:35:59;4.63;;;2.75;;
62704;SDS011;48767;50.754;8.772;2022-08-21T09:38:28;7.43;;;3.92;;
62704;SDS011;48767;50.754;8.772;2022-08-21T09:40:59;5.65;;;3.50;;
62704;SDS011;48767;50.754;8.772;2022-08-21T09:43:27;9.38;;;3.90;;
62704;SDS011;48767;50.754;8.772;2022-08-21T09:46:02;6.20;;;3.50;;
62704;SDS011;48767;50.754;8.772;2022-08-21T09:48:37;5.03;;;2.63;;
62704;SDS011;48767;50.754;8.772;2022-08-21T09:51:09;6.68;;;2.80;;
62704;SDS011;48767;50.754;8.772;2022-08-21T09:53:38;6.90;;;3.47;;
62704;SDS011;48767;50.754;8.772;2022-08-21T09:59:19;4.70;;;3.47;;
62704;SDS011;48767;50.754;8.772;2022-08-21T10:01:52;6.32;;;3.47;;
62704;SDS011;48767;50.754;8.772;2022-08-21T10:04:21;12.75;;;3.17;;
62704;SDS011;48767;50.754;8.772;2022-08-21T10:06:54;6.28;;;3.33;;
62704;SDS011;48767;50.754;8.772;2022-08-21T10:09:32;6.90;;;3.40;;
62704;SDS011;48767;50.754;8.772;2022-08-21T10:12:06;3.67;;;2.20;;
62704;SDS011;48767;50.754;8.772;2022-08-21T10:14:52;8.80;;;2.88;;
62704;SDS011;48767;50.754;8.772;2022-08-21T10:17:26;8.45;;;4.00;;
62704;SDS011;48767;50.754;8.772;2022-08-21T10:19:59;7.32;;;3.08;;
62704;SDS011;48767;50.754;8.772;2022-08-21T10:22:34;7.22;;;2.72;;
62704;SDS011;48767;50.754;8.772;2022-08-21T10:25:08;5.57;;;2.90;;
62704;SDS011;48767;50.754;8.772;2022-08-21T10:27:47;4.40;;;2.88;;
62704;SDS011;48767;50.754;8.772;2022-08-21T10:30:35;6.82;;;2.33;;
62704;SDS011;48767;50.754;8.772;2022-08-21T10:33:11;7.15;;;2.10;;
62704;SDS011;48767;50.754;8.772;2022-08-21T10:35:47;8.65;;;2.28;;
62704;SDS011;48767;50.754;8.772;2022-08-21T10:38:40;7.63;;;2.65;;
62704;SDS011;48767;50.754;8.772;2022-08-21T10:41:17;7.05;;;2.70;;
62704;SDS011;48767;50.754;8.772;2022-08-21T10:44:08;4.78;;;2.42;;
62704;SDS011;48767;50.754;8.772;2022-08-21T10:46:43;4.60;;;2.92;;
62704;SDS011;48767;50.754;8.772;2022-08-21T10:49:21;5.15;;;2.83;;
62704;SDS011;48767;50.754;8.772;2022-08-21T10:52:02;6.93;;;3.05;;
62704;SDS011;48767;50.754;8.772;2022-08-21T10:54:49;7.45;;;3.05;;
62704;SDS011;48767;50.754;8.772;2022-08-21T10:57:19;5.63;;;2.95;;
62704;SDS011;48767;50.754;8.772;2022-08-21T10:59:55;6.88;;;2.92;;
62704;SDS011;48767;50.754;8.772;2022-08-21T11:02:27;6.45;;;2.45;;
62704;SDS011;48767;50.754;8.772;2022-08-21T11:04:59;6.10;;;2.78;;
62704;SDS011;48767;50.754;8.772;2022-08-21T11:07:32;5.70;;;2.53;;
62704;SDS011;48767;50.754;8.772;2022-08-21T11:10:03;6.57;;;3.33;;
62704;SDS011;48767;50.754;8.772;2022-08-21T11:12:38;6.28;;;2.65;;
62704;SDS011;48767;50.754;8.772;2022-08-21T11:15:11;5.28;;;2.05;;
62704;SDS011;48767;50.754;8.772;2022-08-21T11:18:02;4.50;;;2.00;;
62704;SDS011;48767;50.754;8.772;2022-08-21T11:20:40;4.22;;;1.95;;
62704;SDS011;48767;50.754;8.772;2022-08-21T11:23:11;5.70;;;2.15;;
62704;SDS011;48767;50.754;8.772;2022-08-21T11:25:45;4.40;;;2.38;;
62704;SDS011;48767;50.754;8.772;2022-08-21T11:28:18;11.25;;;2.47;;
62704;SDS011;48767;50.754;8.772;2022-08-21T11:30:52;3.85;;;1.90;;
62704;SDS011;48767;50.754;8.772;2022-08-21T11:33:31;4.82;;;2.35;;
62704;SDS011;48767;50.754;8.772;2022-08-21T11:36:12;6.95;;;2.30;;
62704;SDS011;48767;50.754;8.772;2022-08-21T11:38:49;3.50;;;2.20;;
62704;SDS011;48767;50.754;8.772;2022-08-21T11:41:26;5.90;;;2.40;;
62704;SDS011;48767;50.754;8.772;2022-08-21T11:43:58;6.35;;;2.65;;
62704;SDS011;48767;50.754;8.772;2022-08-21T11:46:33;9.48;;;2.83;;
62704;SDS011;48767;50.754;8.772;2022-08-21T11:49:08;4.50;;;1.88;;
62704;SDS011;48767;50.754;8.772;2022-08-21T11:51:48;6.45;;;2.15;;
62704;SDS011;48767;50.754;8.772;2022-08-21T11:54:21;4.18;;;2.10;;
62704;SDS011;48767;50.754;8.772;2022-08-21T11:56:55;4.63;;;2.20;;
62704;SDS011;48767;50.754;8.772;2022-08-21T11:59:29;4.72;;;2.78;;
62704;SDS011;48767;50.754;8.772;2022-08-21T12:02:02;7.30;;;2.30;;
62704;SDS011;48767;50.754;8.772;2022-08-21T12:04:35;3.67;;;2.03;;
62704;SDS011;48767;50.754;8.772;2022-08-21T12:07:11;4.40;;;1.83;;
62704;SDS011;48767;50.754;8.772;2022-08-21T12:09:39;5.53;;;1.83;;
62704;SDS011;48767;50.754;8.772;2022-08-21T12:12:10;2.78;;;1.67;;
62704;SDS011;48767;50.754;8.772;2022-08-21T12:14:39;5.40;;;2.20;;
62704;SDS011;48767;50.754;8.772;2022-08-21T12:17:09;5.03;;;2.00;;
62704;SDS011;48767;50.754;8.772;2022-08-21T12:19:44;5.63;;;1.77;;
62704;SDS011;48767;50.754;8.772;2022-08-21T12:22:12;4.85;;;2.15;;
62704;SDS011;48767;50.754;8.772;2022-08-21T12:24:41;4.47;;;1.73;;
62704;SDS011;48767;50.754;8.772;2022-08-21T12:27:18;5.43;;;1.52;;
62704;SDS011;48767;50.754;8.772;2022-08-21T12:29:51;5.40;;;2.15;;
62704;SDS011;48767;50.754;8.772;2022-08-21T12:32:24;3.00;;;1.73;;
62704;SDS011;48767;50.754;8.772;2022-08-21T12:34:53;3.38;;;1.60;;
62704;SDS011;48767;50.754;8.772;2022-08-21T12:37:25;2.30;;;1.35;;
62704;SDS011;48767;50.754;8.772;2022-08-21T12:40:02;3.22;;;1.65;;
62704;SDS011;48767;50.754;8.772;2022-08-21T12:42:39;1.48;;;1.15;;
62704;SDS011;48767;50.754;8.772;2022-08-21T12:45:13;2.75;;;1.10;;
62704;SDS011;48767;50.754;8.772;2022-08-21T12:47:45;3.40;;;1.25;;
62704;SDS011;48767;50.754;8.772;2022-08-21T12:50:16;3.03;;;1.63;;
62704;SDS011;48767;50.754;8.772;2022-08-21T12:52:48;4.88;;;1.50;;
62704;SDS011;48767;50.754;8.772;2022-08-21T12:55:25;4.03;;;1.60;;
62704;SDS011;48767;50.754;8.772;2022-08-21T12:57:54;2.38;;;1.38;;
62704;SDS011;48767;50.754;8.772;2022-08-21T13:00:22;3.10;;;1.73;;
62704;SDS011;48767;50.754;8.772;2022-08-21T13:02:51;2.50;;;1.70;;
62704;SDS011;48767;50.754;8.772;2022-08-21T13:05:22;3.20;;;1.42;;
62704;SDS011;48767;50.754;8.772;2022-08-21T13:07:54;3.15;;;1.20;;
62704;SDS011;48767;50.754;8.772;2022-08-21T13:10:22;2.47;;;1.27;;
62704;SDS011;48767;50.754;8.772;2022-08-21T13:12:50;2.47;;;1.48;;
62704;SDS011;48767;50.754;8.772;2022-08-21T13:15:23;2.10;;;1.30;;
62704;SDS011;48767;50.754;8.772;2022-08-21T13:17:52;3.75;;;1.00;;
62704;SDS011;48767;50.754;8.772;2022-08-21T13:20:20;3.35;;;1.45;;
62704;SDS011;48767;50.754;8.772;2022-08-21T13:22:48;1.67;;;0.93;;
62704;SDS011;48767;50.754;8.772;2022-08-21T13:25:15;3.60;;;1.42;;
62704;SDS011;48767;50.754;8.772;2022-08-21T13:27:44;3.05;;;1.50;;
62704;SDS011;48767;50.754;8.772;2022-08-21T13:30:24;1.83;;;1.10;;
62704;SDS011;48767;50.754;8.772;2022-08-21T13:32:51;2.45;;;1.45;;
62704;SDS011;48767;50.754;8.772;2022-08-21T13:35:22;1.77;;;1.48;;
62704;SDS011;48767;50.754;8.772;2022-08-21T13:37:50;1.27;;;0.85;;
62704;SDS011;48767;50.754;8.772;2022-08-21T13:42:46;2.28;;;1.20;;
62704;SDS011;48767;50.754;8.772;2022-08-21T13:45:15;2.33;;;1.48;;
62704;SDS011;48767;50.754;8.772;2022-08-21T13:47:46;2.03;;;1.20;;
62704;SDS011;48767;50.754;8.772;2022-08-21T13:50:14;4.07;;;1.40;;
62704;SDS011;48767;50.754;8.772;2022-08-21T13:52:53;1.20;;;0.90;;
62704;SDS011;48767;50.754;8.772;2022-08-21T13:55:22;3.50;;;1.42;;
62704;SDS011;48767;50.754;8.772;2022-08-21T13:57:58;5.10;;;1.80;;
62704;SDS011;48767;50.754;8.772;2022-08-21T14:00:26;4.10;;;1.52;;
62704;SDS011;48767;50.754;8.772;2022-08-21T14:02:59;2.28;;;1.92;;
62704;SDS011;48767;50.754;8.772;2022-08-21T14:05:28;2.78;;;1.40;;
62704;SDS011;48767;50.754;8.772;2022-08-21T14:07:58;2.33;;;1.48;;
62704;SDS011;48767;50.754;8.772;2022-08-21T14:10:29;3.50;;;1.23;;
62704;SDS011;48767;50.754;8.772;2022-08-21T14:12:58;3.72;;;1.40;;
62704;SDS011;48767;50.754;8.772;2022-08-21T14:15:27;4.28;;;1.45;;
62704;SDS011;48767;50.754;8.772;2022-08-21T14:18:02;3.95;;;1.20;;
62704;SDS011;48767;50.754;8.772;2022-08-21T14:20:35;2.58;;;1.30;;
62704;SDS011;48767;50.754;8.772;2022-08-21T14:23:02;4.65;;;1.85;;
62704;SDS011;48767;50.754;8.772;2022-08-21T14:25:30;1.55;;;0.82;;
62704;SDS011;48767;50.754;8.772;2022-08-21T14:30:31;1.75;;;1.20;;
62704;SDS011;48767;50.754;8.772;2022-08-21T14:32:59;1.45;;;1.08;;
62704;SDS011;48767;50.754;8.772;2022-08-21T14:35:28;1.48;;;1.15;;
62704;SDS011;48767;50.754;8.772;2022-08-21T14:37:55;3.83;;;1.55;;
62704;SDS011;48767;50.754;8.772;2022-08-21T14:40:23;2.15;;;1.05;;
62704;SDS011;48767;50.754;8.772;2022-08-21T14:42:50;1.65;;;0.98;;
62704;SDS011;48767;50.754;8.772;2022-08-21T14:45:18;2.33;;;1.45;;
62704;SDS011;48767;50.754;8.772;2022-08-21T14:47:48;2.40;;;1.30;;
62704;SDS011;48767;50.754;8.772;2022-08-21T14:50:16;4.03;;;1.13;;
62704;SDS011;48767;50.754;8.772;2022-08-21T14:52:43;2.03;;;1.30;;
62704;SDS011;48767;50.754;8.772;2022-08-21T14:55:11;1.65;;;1.10;;
62704;SDS011;48767;50.754;8.772;2022-08-21T14:57:39;1.23;;;1.13;;
62704;SDS011;48767;50.754;8.772;2022-08-21T15:00:08;1.77;;;1.33;;
62704;SDS011;48767;50.754;8.772;2022-08-21T15:02:36;2.88;;;1.38;;
62704;SDS011;48767;50.754;8.772;2022-08-21T15:05:03;4.13;;;1.48;;
62704;SDS011;48767;50.754;8.772;2022-08-21T15:07:31;6.78;;;2.28;;
62704;SDS011;48767;50.754;8.772;2022-08-21T15:09:58;4.35;;;1.30;;
62704;SDS011;48767;50.754;8.772;2022-08-21T15:12:24;1.67;;;1.20;;
62704;SDS011;48767;50.754;8.772;2022-08-21T15:14:51;3.40;;;1.65;;
62704;SDS011;48767;50.754;8.772;2022-08-21T15:17:18;5.80;;;1.85;;